createdAt,value
2018-10-21T00:00:24.069Z,21.93
2018-10-21T00:02:27.938Z,21.80
2018-10-21T00:04:31.631Z,27.40
2018-10-21T00:06:35.353Z,24.60
2018-10-21T00:08:39.193Z,29.33
2018-10-21T00:10:42.915Z,25.33
2018-10-21T00:12:46.656Z,26.97
2018-10-21T00:14:50.322Z,19.70
2018-10-21T00:16:54.093Z,23.03
2018-10-21T00:18:57.807Z,22.30
2018-10-21T00:21:01.602Z,26.23
2018-10-21T00:23:05.477Z,22.70
2018-10-21T00:25:09.449Z,23.53
2018-10-21T00:27:13.315Z,25.97
2018-10-21T00:29:17.024Z,30.63
2018-10-21T00:31:20.725Z,22.23
2018-10-21T00:33:24.507Z,24.63
2018-10-21T00:35:28.205Z,21.40
2018-10-21T00:37:31.955Z,24.10
2018-10-21T00:39:35.724Z,21.43
2018-10-21T00:41:39.456Z,23.70
2018-10-21T00:43:43.168Z,27.33
2018-10-21T00:45:46.847Z,21.90
2018-10-21T00:47:50.572Z,24.30
2018-10-21T00:49:54.500Z,20.40
2018-10-21T00:51:58.228Z,19.13
2018-10-21T00:54:02.071Z,21.27
2018-10-21T00:56:05.805Z,19.33
2018-10-21T00:58:09.534Z,25.63
2018-10-21T01:00:13.783Z,22.37
2018-10-21T01:02:17.517Z,22.77
2018-10-21T01:04:21.202Z,26.73
2018-10-21T01:06:24.868Z,20.67
2018-10-21T01:08:28.604Z,23.23
2018-10-21T01:10:32.301Z,21.07
2018-10-21T01:12:36.044Z,18.23
2018-10-21T01:14:39.736Z,24.60
2018-10-21T01:16:43.492Z,19.03
2018-10-21T01:18:47.271Z,22.70
2018-10-21T01:20:50.936Z,24.00
2018-10-21T01:22:55.041Z,24.37
2018-10-21T01:24:58.750Z,19.07
2018-10-21T01:27:02.574Z,23.57
2018-10-21T01:29:06.197Z,19.47
2018-10-21T01:31:09.882Z,22.13
2018-10-21T01:33:19.993Z,18.73
2018-10-21T01:35:23.677Z,25.03
2018-10-21T01:37:27.407Z,17.50
2018-10-21T01:39:41.061Z,23.77
2018-10-21T01:41:45.160Z,26.03
2018-10-21T01:43:48.861Z,21.33
2018-10-21T01:45:52.642Z,21.50
2018-10-21T01:47:57.871Z,24.73
2018-10-21T01:50:01.600Z,19.23
2018-10-21T01:52:05.408Z,23.20
2018-10-21T01:54:10.039Z,23.33
2018-10-21T01:56:13.748Z,24.03
2018-10-21T01:58:18.196Z,19.40
2018-10-21T02:00:22.253Z,18.20
2018-10-21T02:02:25.931Z,24.70
2018-10-21T02:04:29.632Z,21.67
2018-10-21T02:06:33.334Z,23.90
2018-10-21T02:08:37.080Z,25.97
2018-10-21T02:10:40.834Z,24.53
2018-10-21T02:12:44.913Z,33.90
2018-10-21T02:14:48.621Z,23.20
2018-10-21T02:16:52.354Z,28.17
2018-10-21T02:18:56.059Z,23.87
2018-10-21T02:20:59.788Z,23.40
2018-10-21T02:23:03.447Z,21.17
2018-10-21T02:25:07.522Z,23.30
2018-10-21T02:27:11.351Z,20.53
2018-10-21T02:29:15.067Z,18.53
2018-10-21T02:31:18.812Z,23.03
2018-10-21T02:33:22.520Z,20.90
2018-10-21T02:35:26.251Z,21.40
2018-10-21T02:37:29.950Z,21.87
2018-10-21T02:39:33.732Z,24.70
2018-10-21T02:42:01.853Z,20.03
2018-10-21T02:44:06.612Z,19.23
2018-10-21T02:46:10.348Z,20.13
2018-10-21T02:48:14.018Z,20.80
2018-10-21T02:50:17.781Z,19.80
2018-10-21T02:52:21.510Z,20.70
2018-10-21T02:54:28.748Z,21.47
2018-10-21T02:56:32.480Z,26.40
2018-10-21T02:58:36.590Z,19.50
2018-10-21T03:00:40.340Z,17.80
2018-10-21T03:02:44.064Z,21.73
2018-10-21T03:04:47.812Z,22.30
2018-10-21T03:06:51.953Z,25.93
2018-10-21T03:08:55.661Z,22.97
2018-10-21T03:10:59.846Z,21.53
2018-10-21T03:13:03.517Z,25.87
2018-10-21T03:15:07.382Z,25.20
2018-10-21T03:17:11.019Z,20.50
2018-10-21T03:19:14.751Z,25.93
2018-10-21T03:21:18.558Z,26.90
2018-10-21T03:23:22.733Z,26.60
2018-10-21T03:25:26.426Z,28.63
2018-10-21T03:27:30.172Z,22.53
2018-10-21T03:29:33.916Z,22.03
2018-10-21T03:31:37.675Z,26.40
2018-10-21T03:33:41.415Z,25.40
2018-10-21T03:35:45.131Z,20.53
2018-10-21T03:37:48.809Z,21.23
2018-10-21T03:39:52.559Z,20.80
2018-10-21T03:41:56.277Z,24.87
2018-10-21T03:43:59.966Z,20.53
2018-10-21T03:46:03.806Z,25.00
2018-10-21T03:48:07.451Z,21.27
2018-10-21T03:50:11.269Z,28.13
2018-10-21T03:52:14.970Z,21.60
2018-10-21T03:54:18.644Z,26.53
2018-10-21T03:56:22.421Z,22.20
2018-10-21T03:58:26.106Z,18.60
2018-10-21T04:00:29.843Z,23.87
2018-10-21T04:02:33.527Z,20.80
2018-10-21T04:04:37.373Z,18.90
2018-10-21T04:06:41.053Z,20.50
2018-10-21T04:08:44.715Z,19.17
2018-10-21T04:10:48.478Z,21.80
2018-10-21T04:12:52.193Z,21.80
2018-10-21T04:14:56.259Z,20.03
2018-10-21T04:17:00.177Z,20.97
2018-10-21T04:19:03.967Z,22.83
2018-10-21T04:21:07.691Z,22.97
2018-10-21T04:23:11.353Z,23.53
2018-10-21T04:25:15.076Z,26.80
2018-10-21T04:27:18.829Z,22.83
2018-10-21T04:29:22.548Z,18.87
2018-10-21T04:31:26.593Z,20.93
2018-10-21T04:33:45.799Z,21.73
2018-10-21T04:35:49.822Z,25.60
2018-10-21T04:40:11.213Z,22.23
2018-10-21T04:42:14.946Z,25.20
2018-10-21T04:44:18.668Z,24.40
2018-10-21T04:46:22.434Z,23.53
2018-10-21T04:48:26.108Z,23.63
2018-10-21T04:50:29.820Z,19.70
2018-10-21T04:52:34.293Z,19.97
2018-10-21T04:54:37.970Z,25.20
2018-10-21T04:56:41.837Z,25.93
2018-10-21T04:58:45.512Z,20.20
2018-10-21T05:00:49.592Z,19.60
2018-10-21T05:02:53.342Z,25.43
2018-10-21T05:04:57.054Z,24.03
2018-10-21T05:07:00.906Z,24.80
2018-10-21T05:09:05.208Z,20.20
2018-10-21T05:11:09.054Z,23.43
2018-10-21T05:13:12.756Z,22.17
2018-10-21T05:15:16.545Z,18.17
2018-10-21T05:17:20.392Z,27.40
2018-10-21T05:19:24.281Z,21.20
2018-10-21T05:21:28.035Z,21.33
2018-10-21T05:23:31.773Z,21.67
2018-10-21T05:25:35.474Z,23.23
2018-10-21T05:27:42.001Z,21.63
2018-10-21T05:29:45.907Z,21.93
2018-10-21T05:31:49.650Z,21.67
2018-10-21T05:33:53.396Z,18.57
2018-10-21T05:35:57.123Z,18.47
2018-10-21T05:38:00.923Z,24.80
2018-10-21T05:40:04.847Z,23.90
2018-10-21T05:42:08.553Z,23.23
2018-10-21T05:44:12.345Z,23.50
2018-10-21T05:46:24.381Z,26.03
2018-10-21T05:48:28.049Z,36.30
2018-10-21T05:50:31.851Z,26.60
2018-10-21T05:52:36.258Z,26.17
2018-10-21T05:54:43.019Z,26.57
2018-10-21T05:56:48.014Z,25.27
2018-10-21T05:58:51.671Z,19.27
2018-10-21T06:00:55.467Z,21.27
2018-10-21T06:02:59.294Z,24.33
2018-10-21T06:05:02.945Z,35.90
2018-10-21T06:07:06.695Z,22.63
2018-10-21T06:09:11.918Z,25.00
2018-10-21T06:11:15.632Z,19.87
2018-10-21T06:13:19.350Z,18.30
2018-10-21T06:15:23.058Z,21.50
2018-10-21T06:17:30.762Z,21.90
2018-10-21T06:19:39.591Z,26.90
2018-10-21T06:21:43.273Z,28.83
2018-10-21T06:23:47.141Z,34.53
2018-10-21T06:25:50.681Z,30.07
2018-10-21T06:27:54.436Z,20.43
2018-10-21T06:29:58.270Z,24.50
2018-10-21T06:32:01.996Z,21.23
2018-10-21T06:34:06.099Z,35.10
2018-10-21T06:36:09.788Z,24.90
2018-10-21T06:38:13.496Z,26.23
2018-10-21T06:40:17.194Z,26.10
2018-10-21T06:42:20.897Z,19.60
2018-10-21T06:44:25.426Z,24.73
2018-10-21T06:46:29.163Z,19.20
2018-10-21T06:48:32.976Z,23.97
2018-10-21T06:50:36.598Z,23.67
2018-10-21T06:52:40.421Z,26.03
2018-10-21T06:54:44.132Z,24.53
2018-10-21T06:56:48.190Z,26.03
2018-10-21T06:58:51.879Z,24.53
2018-10-21T07:00:55.567Z,34.30
2018-10-21T07:02:59.303Z,28.73
2018-10-21T07:05:03.112Z,30.73
2018-10-21T07:07:06.752Z,19.07
2018-10-21T07:09:10.509Z,27.13
2018-10-21T07:11:14.394Z,27.50
2018-10-21T07:13:18.140Z,31.37
2018-10-21T07:15:22.005Z,35.67
2018-10-21T07:17:25.704Z,40.20
2018-10-21T07:19:29.407Z,34.47
2018-10-21T07:21:33.136Z,33.63
2018-10-21T07:23:36.942Z,31.20
2018-10-21T07:25:40.636Z,35.33
2018-10-21T07:27:44.390Z,40.57
2018-10-21T07:29:48.201Z,29.30
2018-10-21T07:31:51.900Z,31.63
2018-10-21T07:33:56.028Z,36.23
2018-10-21T07:35:59.837Z,37.20
2018-10-21T07:38:03.669Z,36.70
2018-10-21T07:40:08.067Z,30.27
2018-10-21T07:42:11.792Z,28.93
2018-10-21T07:44:15.562Z,30.67
2018-10-21T07:46:21.633Z,32.40
2018-10-21T07:48:26.255Z,29.47
2018-10-21T07:50:31.028Z,38.17
2018-10-21T07:52:34.802Z,28.33
2018-10-21T07:54:38.683Z,30.80
2018-10-21T07:56:42.533Z,29.73
2018-10-21T07:58:46.323Z,25.43
2018-10-21T08:00:50.117Z,27.00
2018-10-21T08:02:56.792Z,31.47
2018-10-21T08:05:01.376Z,31.17
2018-10-21T08:07:16.276Z,26.00
2018-10-21T08:09:20.008Z,24.57
2018-10-21T08:11:24.340Z,27.10
2018-10-21T08:13:28.139Z,24.53
2018-10-21T08:15:32.125Z,22.80
2018-10-21T08:17:35.912Z,30.20
2018-10-21T08:19:40.243Z,21.67
2018-10-21T08:21:43.986Z,24.97
2018-10-21T08:23:48.403Z,24.00
2018-10-21T08:25:52.455Z,22.50
2018-10-21T08:27:56.395Z,25.50
2018-10-21T08:30:00.198Z,28.00
2018-10-21T08:32:04.488Z,23.43
2018-10-21T08:34:08.618Z,26.87
2018-10-21T08:36:12.497Z,23.10
2018-10-21T08:38:16.321Z,33.00
2018-10-21T08:40:21.012Z,25.10
2018-10-21T08:42:24.771Z,24.50
2018-10-21T08:44:28.524Z,27.03
2018-10-21T08:46:32.521Z,26.30
2018-10-21T08:48:36.273Z,20.43
2018-10-21T08:50:40.087Z,22.47
2018-10-21T08:52:43.901Z,20.73
2018-10-21T08:54:47.759Z,22.73
2018-10-21T08:56:51.516Z,21.93
2018-10-21T08:58:55.908Z,21.10
2018-10-21T09:00:59.870Z,23.50
2018-10-21T09:03:03.992Z,21.70
2018-10-21T09:05:10.138Z,19.43
2018-10-21T09:07:14.513Z,21.00
2018-10-21T09:09:18.543Z,18.23
2018-10-21T09:11:22.400Z,18.03
2018-10-21T09:13:26.390Z,17.77
2018-10-21T09:15:30.246Z,20.17
2018-10-21T09:17:34.064Z,18.30
2018-10-21T09:19:38.484Z,26.43
2018-10-21T09:21:42.241Z,20.17
2018-10-21T09:23:46.113Z,19.43
2018-10-21T09:25:50.029Z,19.00
2018-10-21T09:27:53.946Z,17.50
2018-10-21T09:29:57.820Z,18.60
2018-10-21T09:32:01.590Z,18.13
2018-10-21T09:34:05.923Z,20.87
2018-10-21T09:36:09.744Z,16.90
2018-10-21T09:38:15.102Z,18.50
2018-10-21T09:40:20.355Z,20.93
2018-10-21T09:42:24.359Z,20.07
2018-10-21T09:44:28.233Z,17.07
2018-10-21T09:46:32.181Z,20.37
2018-10-21T09:48:35.995Z,17.70
2018-10-21T09:50:40.008Z,20.03
2018-10-21T09:52:43.813Z,15.83
2018-10-21T09:54:47.837Z,15.30
2018-10-21T09:56:51.661Z,20.73
2018-10-21T09:58:55.443Z,16.40
2018-10-21T10:01:04.524Z,18.60
2018-10-21T10:03:10.291Z,14.40
2018-10-21T10:05:14.238Z,16.03
2018-10-21T10:07:18.306Z,18.97
2018-10-21T10:09:22.087Z,12.93
2018-10-21T10:11:25.897Z,19.73
2018-10-21T10:13:29.628Z,15.93
2018-10-21T10:15:33.424Z,20.20
2018-10-21T10:17:37.253Z,17.37
2018-10-21T10:19:41.071Z,17.40
2018-10-21T10:21:44.970Z,29.43
2018-10-21T10:23:48.996Z,20.20
2018-10-21T10:25:53.468Z,14.57
2018-10-21T10:27:57.282Z,12.93
2018-10-21T10:30:02.293Z,10.37
2018-10-21T10:32:06.218Z,11.33
2018-10-21T10:34:10.229Z,10.33
2018-10-21T10:36:14.090Z,14.07
2018-10-21T10:38:17.877Z,9.17
2018-10-21T10:40:21.663Z,9.20
2018-10-21T10:42:25.512Z,8.53
2018-10-21T10:44:32.196Z,8.50
2018-10-21T10:46:36.032Z,8.30
2018-10-21T10:48:39.800Z,7.63
2018-10-21T10:50:43.552Z,9.70
2018-10-21T10:52:48.077Z,6.33
2018-10-21T10:54:52.126Z,4.17
2018-10-21T10:56:55.988Z,5.67
2018-10-21T10:59:00.101Z,5.77
2018-10-21T11:01:03.995Z,6.23
2018-10-21T11:03:07.777Z,5.60
2018-10-21T11:05:11.515Z,7.70
2018-10-21T11:07:15.430Z,4.73
2018-10-21T11:09:19.142Z,6.57
2018-10-21T11:11:22.912Z,3.67
2018-10-21T11:13:27.058Z,5.43
2018-10-21T11:15:30.921Z,9.43
2018-10-21T11:17:34.717Z,6.20
2018-10-21T11:19:38.452Z,7.00
2018-10-21T11:21:42.246Z,6.80
2018-10-21T11:23:45.967Z,11.90
2018-10-21T11:25:49.743Z,6.80
2018-10-21T11:27:53.665Z,4.77
2018-10-21T11:29:57.443Z,8.57
2018-10-21T11:32:01.218Z,5.10
2018-10-21T11:34:04.950Z,6.17
2018-10-21T11:36:08.752Z,4.73
2018-10-21T11:38:13.092Z,5.90
2018-10-21T11:40:16.991Z,4.83
2018-10-21T11:42:20.925Z,7.30
2018-10-21T11:44:25.162Z,4.73
2018-10-21T11:46:28.987Z,3.67
2018-10-21T11:48:32.815Z,4.70
2018-10-21T11:50:36.649Z,3.20
2018-10-21T11:52:40.905Z,4.03
2018-10-21T11:54:44.647Z,3.87
2018-10-21T11:56:48.430Z,4.30
2018-10-21T11:58:52.173Z,4.43
2018-10-21T12:00:56.077Z,3.97
2018-10-21T12:02:59.950Z,2.90
2018-10-21T12:05:03.737Z,3.37
2018-10-21T12:07:07.549Z,3.73
2018-10-21T12:09:12.636Z,3.07
2018-10-21T12:11:16.412Z,2.13
2018-10-21T12:13:20.314Z,3.20
2018-10-21T12:15:24.119Z,4.20
2018-10-21T12:17:27.937Z,5.93
2018-10-21T12:19:31.724Z,4.00
2018-10-21T12:21:36.230Z,3.30
2018-10-21T12:23:40.058Z,3.50
2018-10-21T12:25:43.880Z,2.90
2018-10-21T12:27:47.673Z,4.53
2018-10-21T12:29:52.664Z,2.93
2018-10-21T12:31:56.655Z,1.93
2018-10-21T12:34:00.481Z,1.83
2018-10-21T12:36:04.564Z,3.67
2018-10-21T12:38:09.076Z,2.60
2018-10-21T12:40:12.951Z,2.33
2018-10-21T12:42:16.763Z,3.10
2018-10-21T12:44:20.596Z,2.73
2018-10-21T12:46:25.184Z,4.23
2018-10-21T12:48:31.127Z,2.40
2018-10-21T12:50:35.171Z,3.07
2018-10-21T12:52:39.185Z,4.37
2018-10-21T12:54:43.053Z,4.13
2018-10-21T12:56:47.049Z,1.73
2018-10-21T12:58:51.316Z,2.63
2018-10-21T13:00:55.147Z,2.37
2018-10-21T13:03:00.105Z,4.43
2018-10-21T13:05:04.189Z,2.93
2018-10-21T13:07:08.061Z,3.57
2018-10-21T13:09:13.232Z,3.90
2018-10-21T13:11:17.186Z,2.10
2018-10-21T13:13:21.070Z,2.90
2018-10-21T13:15:26.032Z,4.30
2018-10-21T13:17:29.928Z,7.23
2018-10-21T13:19:33.829Z,4.00
2018-10-21T13:21:37.714Z,1.87
2018-10-21T13:23:41.556Z,2.20
2018-10-21T13:25:45.321Z,2.50
2018-10-21T13:27:49.081Z,2.03
2018-10-21T13:29:52.905Z,2.83
2018-10-21T13:31:56.659Z,10.00
2018-10-21T13:34:00.558Z,5.53
2018-10-21T13:36:04.630Z,2.37
2018-10-21T13:38:08.373Z,3.40
2018-10-21T13:40:12.231Z,4.50
2018-10-21T13:42:16.041Z,3.37
2018-10-21T13:44:19.850Z,2.80
2018-10-21T13:46:23.631Z,3.50
2018-10-21T13:48:27.406Z,3.17
2018-10-21T13:50:31.294Z,6.33
2018-10-21T13:52:35.104Z,5.00
2018-10-21T13:54:39.741Z,2.30
2018-10-21T13:56:43.511Z,3.00
2018-10-21T13:58:47.209Z,2.30
2018-10-21T14:00:51.126Z,3.20
2018-10-21T14:02:54.939Z,6.00
2018-10-21T14:04:58.725Z,7.07
2018-10-21T14:07:02.617Z,6.40
2018-10-21T14:09:10.032Z,5.60
2018-10-21T14:11:13.815Z,4.27
2018-10-21T14:13:17.625Z,4.53
2018-10-21T14:15:21.836Z,6.97
2018-10-21T14:17:25.580Z,5.07
2018-10-21T14:19:29.376Z,4.97
2018-10-21T14:21:33.101Z,6.33
2018-10-21T14:23:36.857Z,5.43
2018-10-21T14:25:40.675Z,8.40
2018-10-21T14:27:44.467Z,4.83
2018-10-21T14:29:48.317Z,8.83
2018-10-21T14:31:52.059Z,9.20
2018-10-21T14:33:56.176Z,6.27
2018-10-21T14:36:00.011Z,6.93
2018-10-21T14:38:03.880Z,8.60
2018-10-21T14:40:10.130Z,9.50
2018-10-21T14:42:14.175Z,6.50
2018-10-21T14:44:17.788Z,6.70
2018-10-21T14:46:21.579Z,14.43
2018-10-21T14:48:25.388Z,3.40
2018-10-21T14:50:29.153Z,4.90
2018-10-21T14:52:32.940Z,9.37
2018-10-21T14:54:36.699Z,6.77
2018-10-21T14:56:40.576Z,5.50
2018-10-21T14:58:44.387Z,5.10
2018-10-21T15:00:48.166Z,6.90
2018-10-21T15:02:51.920Z,7.20
2018-10-21T15:04:55.724Z,6.00
2018-10-21T15:06:59.470Z,5.87
2018-10-21T15:09:04.043Z,5.63
2018-10-21T15:11:07.840Z,5.93
2018-10-21T15:13:11.521Z,6.53
2018-10-21T15:15:15.296Z,4.23
2018-10-21T15:17:19.084Z,7.83
2018-10-21T15:19:22.918Z,8.03
2018-10-21T15:21:26.670Z,16.03
2018-10-21T15:23:30.480Z,13.53
2018-10-21T15:25:34.248Z,10.57
2018-10-21T15:27:38.077Z,7.53
2018-10-21T15:29:41.870Z,6.70
2018-10-21T15:31:45.637Z,6.30
2018-10-21T15:33:49.346Z,13.00
2018-10-21T15:35:53.083Z,5.83
2018-10-21T15:37:56.854Z,7.00
2018-10-21T15:40:00.658Z,6.90
2018-10-21T15:42:04.524Z,10.70
2018-10-21T15:44:11.789Z,5.03
2018-10-21T15:46:15.777Z,6.50
2018-10-21T15:48:19.802Z,14.97
2018-10-21T15:50:23.617Z,7.33
2018-10-21T15:52:27.493Z,7.67
2018-10-21T15:54:32.132Z,8.90
2018-10-21T15:56:35.927Z,7.77
2018-10-21T15:58:39.680Z,4.97
2018-10-21T16:00:43.494Z,6.87
2018-10-21T16:02:47.946Z,30.57
2018-10-21T16:04:51.675Z,33.30
2018-10-21T16:06:55.543Z,18.23
2018-10-21T16:08:59.346Z,12.10
2018-10-21T16:11:03.200Z,5.10
2018-10-21T16:13:08.229Z,7.50
2018-10-21T16:15:14.452Z,7.03
2018-10-21T16:17:18.231Z,7.73
2018-10-21T16:19:22.666Z,9.37
2018-10-21T16:21:26.405Z,8.27
2018-10-21T16:23:30.229Z,11.60
2018-10-21T16:25:34.060Z,10.13
2018-10-21T16:27:37.907Z,7.40
2018-10-21T16:29:41.693Z,11.60
2018-10-21T16:31:45.506Z,6.07
2018-10-21T16:33:49.262Z,7.00
2018-10-21T16:35:53.070Z,7.60
2018-10-21T16:37:56.920Z,7.53
2018-10-21T16:40:00.635Z,8.47
2018-10-21T16:42:04.444Z,8.20
2018-10-21T16:44:08.216Z,10.20
2018-10-21T16:46:12.093Z,5.93
2018-10-21T16:48:15.938Z,4.53
2018-10-21T16:50:19.654Z,9.27
2018-10-21T16:52:23.564Z,5.83
2018-10-21T16:54:27.357Z,9.00
2018-10-21T16:56:31.159Z,5.10
2018-10-21T16:58:34.982Z,6.23
2018-10-21T17:00:38.912Z,6.33
2018-10-21T17:02:43.175Z,4.40
2018-10-21T17:04:47.035Z,12.00
2018-10-21T17:06:50.818Z,4.57
2018-10-21T17:08:54.639Z,12.67
2018-10-21T17:10:58.641Z,8.43
2018-10-21T17:13:02.226Z,8.73
2018-10-21T17:15:07.371Z,16.00
2018-10-21T17:17:11.207Z,19.43
2018-10-21T17:19:15.168Z,16.30
2018-10-21T17:21:18.855Z,20.27
2018-10-21T17:23:22.930Z,20.37
2018-10-21T17:25:27.103Z,16.57
2018-10-21T17:27:32.866Z,9.50
2018-10-21T17:29:38.640Z,9.67
2018-10-21T17:31:42.384Z,11.50
2018-10-21T17:33:48.204Z,13.53
2018-10-21T17:35:54.301Z,16.27
2018-10-21T17:37:59.412Z,211.43
2018-10-21T17:40:04.220Z,115.97
2018-10-21T17:42:08.126Z,107.77
2018-10-21T17:44:13.908Z,71.10
2018-10-21T17:46:20.461Z,36.80
2018-10-21T17:48:25.559Z,21.50
2018-10-21T17:50:30.121Z,19.20
2018-10-21T17:52:34.296Z,23.10
2018-10-21T17:54:38.323Z,17.83
2018-10-21T17:56:47.791Z,18.90
2018-10-21T17:58:53.977Z,22.17
2018-10-21T18:01:04.655Z,15.57
2018-10-21T18:03:08.506Z,11.33
2018-10-21T18:05:14.824Z,8.90
2018-10-21T18:07:19.821Z,11.67
2018-10-21T18:09:23.615Z,7.17
2018-10-21T18:11:27.422Z,9.93
2018-10-21T18:13:34.057Z,11.10
2018-10-21T18:15:38.081Z,9.27
2018-10-21T18:17:42.586Z,11.27
2018-10-21T18:19:46.408Z,11.50
2018-10-21T18:21:50.258Z,12.60
2018-10-21T18:23:54.663Z,14.13
2018-10-21T18:25:58.491Z,13.50
2018-10-21T18:28:02.245Z,10.33
2018-10-21T18:30:07.271Z,13.17
2018-10-21T18:32:12.067Z,8.10
2018-10-21T18:34:18.247Z,10.00
2018-10-21T18:36:22.173Z,11.47
2018-10-21T18:38:28.268Z,11.77
2018-10-21T18:40:33.796Z,13.20
2018-10-21T18:42:40.231Z,8.20
2018-10-21T18:44:47.507Z,8.87
2018-10-21T18:46:53.021Z,10.63
2018-10-21T18:48:59.831Z,12.63
2018-10-21T18:51:05.709Z,12.13
2018-10-21T18:53:12.668Z,12.50
2018-10-21T18:55:16.561Z,10.17
2018-10-21T18:57:22.873Z,18.13
2018-10-21T18:59:27.720Z,12.07
2018-10-21T19:01:32.739Z,13.83
2018-10-21T19:03:36.589Z,13.87
2018-10-21T19:05:43.206Z,20.00
2018-10-21T19:07:49.591Z,17.03
2018-10-21T19:09:54.222Z,18.60
2018-10-21T19:12:00.818Z,23.50
2018-10-21T19:14:08.344Z,21.03
2018-10-21T19:16:14.303Z,18.57
2018-10-21T19:18:18.220Z,19.53
2018-10-21T19:20:21.998Z,14.93
2018-10-21T19:22:26.101Z,14.37
2018-10-21T19:24:31.398Z,18.03
2018-10-21T19:26:35.679Z,15.47
2018-10-21T19:28:39.595Z,20.60
2018-10-21T19:30:45.083Z,18.93
2018-10-21T19:32:49.115Z,21.00
2018-10-21T19:34:54.425Z,19.50
2018-10-21T19:37:00.100Z,19.17
2018-10-21T19:39:06.835Z,17.43
2018-10-21T19:41:10.977Z,13.50
2018-10-21T19:43:14.987Z,13.20
2018-10-21T19:45:19.473Z,16.63
2018-10-21T19:47:23.172Z,15.30
2018-10-21T19:49:28.220Z,12.03
2018-10-21T19:51:33.748Z,28.70
2018-10-21T19:53:38.309Z,23.00
2018-10-21T19:55:44.019Z,17.33
2018-10-21T19:57:49.302Z,19.10
2018-10-21T19:59:53.565Z,9.77
2018-10-21T20:02:00.616Z,9.40
2018-10-21T20:04:07.267Z,8.47
2018-10-21T20:06:14.137Z,9.00
2018-10-21T20:08:19.070Z,8.40
2018-10-21T20:10:24.828Z,10.93
2018-10-21T20:12:28.769Z,9.50
2018-10-21T20:14:32.692Z,7.37
2018-10-21T20:16:36.441Z,8.77
2018-10-21T20:18:41.462Z,8.27
2018-10-21T20:20:46.029Z,7.87
2018-10-21T20:22:50.917Z,8.50
2018-10-21T20:24:55.175Z,6.33
2018-10-21T20:27:01.667Z,11.03
2018-10-21T20:29:05.756Z,8.17
2018-10-21T20:31:11.903Z,11.30
2018-10-21T20:33:15.742Z,10.60
2018-10-21T20:35:19.482Z,11.23
2018-10-21T20:37:25.766Z,12.33
2018-10-21T20:39:29.641Z,9.57
2018-10-21T20:41:33.520Z,6.90
2018-10-21T20:43:37.273Z,12.50
2018-10-21T20:45:41.004Z,9.63
2018-10-21T20:47:44.747Z,8.73
2018-10-21T20:49:48.506Z,10.87
2018-10-21T20:51:52.264Z,9.70
2018-10-21T20:53:58.388Z,8.77
2018-10-21T20:56:02.895Z,8.67
2018-10-21T20:58:06.832Z,8.70
2018-10-21T21:00:10.766Z,9.10
2018-10-21T21:02:15.794Z,11.43
2018-10-21T21:04:19.893Z,7.57
2018-10-21T21:06:23.629Z,10.77
2018-10-21T21:08:27.461Z,9.50
2018-10-21T21:10:31.287Z,10.07
2018-10-21T21:12:35.227Z,9.10
2018-10-21T21:14:39.034Z,11.27
2018-10-21T21:16:43.660Z,14.23
2018-10-21T21:18:49.160Z,14.30
2018-10-21T21:20:53.249Z,12.37
2018-10-21T21:22:57.035Z,9.70
2018-10-21T21:25:00.856Z,13.40
2018-10-21T21:27:05.981Z,9.00
2018-10-21T21:29:10.380Z,9.90
2018-10-21T21:31:14.214Z,9.43
2018-10-21T21:33:17.976Z,10.27
2018-10-21T21:35:21.724Z,9.00
2018-10-21T21:37:25.561Z,11.33
2018-10-21T21:39:29.292Z,12.80
2018-10-21T21:41:33.425Z,12.83
2018-10-21T21:43:38.164Z,9.33
2018-10-21T21:45:43.798Z,13.00
2018-10-21T21:47:47.858Z,11.20
2018-10-21T21:49:51.680Z,8.10
2018-10-21T21:51:55.405Z,9.97
2018-10-21T21:53:59.211Z,8.23
2018-10-21T21:56:04.289Z,9.47
2018-10-21T21:58:10.360Z,11.97
2018-10-21T22:00:14.976Z,7.17
2018-10-21T22:02:18.656Z,7.10
2018-10-21T22:04:22.693Z,9.37
2018-10-21T22:06:26.465Z,9.70
2018-10-21T22:08:32.174Z,8.67
2018-10-21T22:10:36.312Z,8.87
2018-10-21T22:12:40.259Z,6.87
2018-10-21T22:14:45.009Z,9.60
2018-10-21T22:16:48.740Z,7.47
2018-10-21T22:18:52.707Z,10.83
2018-10-21T22:20:56.589Z,8.87
2018-10-21T22:23:00.314Z,13.17
2018-10-21T22:25:04.423Z,10.87
2018-10-21T22:27:08.195Z,8.53
2018-10-21T22:29:11.994Z,8.60
2018-10-21T22:31:15.804Z,5.53
2018-10-21T22:33:19.792Z,7.03
2018-10-21T22:35:23.622Z,8.30
2018-10-21T22:37:27.372Z,6.03
2018-10-21T22:39:31.212Z,17.60
2018-10-21T22:41:34.968Z,7.30
2018-10-21T22:43:38.801Z,8.40
2018-10-21T22:45:42.882Z,7.20
2018-10-21T22:47:46.699Z,6.17
2018-10-21T22:49:50.638Z,8.50
2018-10-21T22:51:54.369Z,9.13
2018-10-21T22:53:58.205Z,6.80
2018-10-21T22:56:02.048Z,7.50
2018-10-21T22:58:06.099Z,10.73
2018-10-21T23:00:10.558Z,6.33
2018-10-21T23:02:14.589Z,9.83
2018-10-21T23:04:18.480Z,11.63
2018-10-21T23:06:22.366Z,11.70
2018-10-21T23:08:26.107Z,8.57
2018-10-21T23:10:29.905Z,15.27
2018-10-21T23:12:33.764Z,8.67
2018-10-21T23:14:37.924Z,9.83
2018-10-21T23:16:41.686Z,8.20
2018-10-21T23:18:45.464Z,10.90
2018-10-21T23:20:49.668Z,10.40
2018-10-21T23:22:53.476Z,9.00
2018-10-21T23:24:57.260Z,10.67
2018-10-21T23:27:01.116Z,15.87
2018-10-21T23:29:04.992Z,13.80
2018-10-21T23:31:09.041Z,17.67
2018-10-21T23:33:12.835Z,14.53
2018-10-21T23:35:16.600Z,12.33
2018-10-21T23:37:20.320Z,12.33
2018-10-21T23:39:24.127Z,17.83
2018-10-21T23:41:27.921Z,10.23
2018-10-21T23:43:31.655Z,11.83
2018-10-21T23:45:35.431Z,12.03
2018-10-21T23:47:39.681Z,13.77
2018-10-21T23:49:43.492Z,14.00
2018-10-21T23:51:47.652Z,10.73
2018-10-21T23:53:51.413Z,10.37
2018-10-21T23:55:55.233Z,12.10
2018-10-21T23:57:59.052Z,10.60
